sensor_id;sensor_type;location;lat;lon;timestamp;P1;durP1;ratioP1;P2;durP2;ratioP2
24034;SDS011;12242;50.952;4.678;2022-10-13T00:01:09;12.90;;;6.05;;
24034;SDS011;12242;50.952;4.678;2022-10-13T00:03:43;12.68;;;5.55;;
24034;SDS011;12242;50.952;4.678;2022-10-13T00:06:15;17.17;;;5.68;;
24034;SDS011;12242;50.952;4.678;2022-10-13T00:08:48;17.20;;;6.30;;
24034;SDS011;12242;50.952;4.678;2022-10-13T00:11:22;15.55;;;5.93;;
24034;SDS011;12242;50.952;4.678;2022-10-13T00:13:53;13.57;;;5.80;;
24034;SDS011;12242;50.952;4.678;2022-10-13T00:16:27;19.50;;;5.97;;
24034;SDS011;12242;50.952;4.678;2022-10-13T00:18:55;15.93;;;6.07;;
24034;SDS011;12242;50.952;4.678;2022-10-13T00:21:24;17.15;;;6.28;;
24034;SDS011;12242;50.952;4.678;2022-10-13T00:23:53;15.32;;;6.10;;
24034;SDS011;12242;50.952;4.678;2022-10-13T00:26:23;17.60;;;5.78;;
24034;SDS011;12242;50.952;4.678;2022-10-13T00:28:52;14.48;;;6.05;;
24034;SDS011;12242;50.952;4.678;2022-10-13T00:31:22;20.20;;;6.18;;
24034;SDS011;12242;50.952;4.678;2022-10-13T00:33:54;14.15;;;5.57;;
24034;SDS011;12242;50.952;4.678;2022-10-13T00:36:23;17.02;;;6.13;;
24034;SDS011;12242;50.952;4.678;2022-10-13T00:38:51;17.33;;;5.82;;
24034;SDS011;12242;50.952;4.678;2022-10-13T00:41:19;15.35;;;6.25;;
24034;SDS011;12242;50.952;4.678;2022-10-13T00:43:51;16.48;;;5.38;;
24034;SDS011;12242;50.952;4.678;2022-10-13T00:46:33;15.27;;;6.03;;
24034;SDS011;12242;50.952;4.678;2022-10-13T00:49:09;14.15;;;5.82;;
24034;SDS011;12242;50.952;4.678;2022-10-13T00:51:44;20.05;;;5.85;;
24034;SDS011;12242;50.952;4.678;2022-10-13T00:54:16;15.00;;;5.53;;
24034;SDS011;12242;50.952;4.678;2022-10-13T00:56:49;18.60;;;5.60;;
24034;SDS011;12242;50.952;4.678;2022-10-13T00:59:22;16.25;;;6.15;;
24034;SDS011;12242;50.952;4.678;2022-10-13T01:01:53;13.18;;;5.53;;
24034;SDS011;12242;50.952;4.678;2022-10-13T01:04:22;14.50;;;5.75;;
24034;SDS011;12242;50.952;4.678;2022-10-13T01:06:53;16.63;;;6.03;;
24034;SDS011;12242;50.952;4.678;2022-10-13T01:09:21;17.08;;;5.50;;
24034;SDS011;12242;50.952;4.678;2022-10-13T01:14:43;14.98;;;5.82;;
24034;SDS011;12242;50.952;4.678;2022-10-13T01:20:36;15.82;;;5.53;;
24034;SDS011;12242;50.952;4.678;2022-10-13T01:34:33;16.45;;;5.60;;
24034;SDS011;12242;50.952;4.678;2022-10-13T01:39:42;14.68;;;5.75;;
24034;SDS011;12242;50.952;4.678;2022-10-13T01:42:14;16.45;;;5.80;;
24034;SDS011;12242;50.952;4.678;2022-10-13T01:44:57;17.83;;;5.65;;
24034;SDS011;12242;50.952;4.678;2022-10-13T01:47:29;17.40;;;5.82;;
24034;SDS011;12242;50.952;4.678;2022-10-13T01:49:58;13.32;;;5.75;;
24034;SDS011;12242;50.952;4.678;2022-10-13T01:52:29;17.23;;;5.68;;
24034;SDS011;12242;50.952;4.678;2022-10-13T01:55:04;16.40;;;5.68;;
24034;SDS011;12242;50.952;4.678;2022-10-13T01:57:35;15.05;;;5.90;;
24034;SDS011;12242;50.952;4.678;2022-10-13T02:00:06;12.38;;;5.40;;
24034;SDS011;12242;50.952;4.678;2022-10-13T02:02:42;16.30;;;5.45;;
24034;SDS011;12242;50.952;4.678;2022-10-13T02:05:44;15.13;;;5.78;;
24034;SDS011;12242;50.952;4.678;2022-10-13T02:08:26;16.65;;;5.82;;
24034;SDS011;12242;50.952;4.678;2022-10-13T02:11:14;11.85;;;5.07;;
24034;SDS011;12242;50.952;4.678;2022-10-13T02:16:58;12.25;;;5.25;;
24034;SDS011;12242;50.952;4.678;2022-10-13T02:19:34;16.00;;;5.47;;
24034;SDS011;12242;50.952;4.678;2022-10-13T02:24:32;15.50;;;5.45;;
24034;SDS011;12242;50.952;4.678;2022-10-13T02:27:00;19.02;;;5.32;;
24034;SDS011;12242;50.952;4.678;2022-10-13T02:29:30;15.60;;;5.78;;
24034;SDS011;12242;50.952;4.678;2022-10-13T02:32:03;17.63;;;5.97;;
24034;SDS011;12242;50.952;4.678;2022-10-13T02:34:30;12.65;;;5.35;;
24034;SDS011;12242;50.952;4.678;2022-10-13T02:37:00;14.48;;;5.72;;
24034;SDS011;12242;50.952;4.678;2022-10-13T02:39:30;15.57;;;5.72;;
24034;SDS011;12242;50.952;4.678;2022-10-13T02:42:00;15.85;;;5.63;;
24034;SDS011;12242;50.952;4.678;2022-10-13T02:44:27;14.48;;;5.68;;
24034;SDS011;12242;50.952;4.678;2022-10-13T02:46:54;14.65;;;4.72;;
24034;SDS011;12242;50.952;4.678;2022-10-13T02:49:22;14.25;;;5.43;;
24034;SDS011;12242;50.952;4.678;2022-10-13T02:51:49;12.93;;;5.57;;
24034;SDS011;12242;50.952;4.678;2022-10-13T02:54:16;14.73;;;5.47;;
24034;SDS011;12242;50.952;4.678;2022-10-13T02:56:46;19.40;;;6.10;;
24034;SDS011;12242;50.952;4.678;2022-10-13T02:59:14;17.30;;;6.57;;
24034;SDS011;12242;50.952;4.678;2022-10-13T03:01:41;16.98;;;6.13;;
24034;SDS011;12242;50.952;4.678;2022-10-13T03:04:10;17.73;;;6.47;;
24034;SDS011;12242;50.952;4.678;2022-10-13T03:06:37;15.07;;;5.53;;
24034;SDS011;12242;50.952;4.678;2022-10-13T03:09:05;13.00;;;5.25;;
24034;SDS011;12242;50.952;4.678;2022-10-13T03:11:33;18.23;;;6.13;;
24034;SDS011;12242;50.952;4.678;2022-10-13T03:14:02;15.50;;;5.63;;
24034;SDS011;12242;50.952;4.678;2022-10-13T03:16:29;14.20;;;5.68;;
24034;SDS011;12242;50.952;4.678;2022-10-13T03:18:56;16.38;;;6.10;;
24034;SDS011;12242;50.952;4.678;2022-10-13T03:21:24;17.30;;;5.93;;
24034;SDS011;12242;50.952;4.678;2022-10-13T03:23:52;19.33;;;5.72;;
24034;SDS011;12242;50.952;4.678;2022-10-13T03:26:19;16.67;;;5.82;;
24034;SDS011;12242;50.952;4.678;2022-10-13T03:28:48;16.33;;;5.35;;
24034;SDS011;12242;50.952;4.678;2022-10-13T03:31:18;13.07;;;5.38;;
24034;SDS011;12242;50.952;4.678;2022-10-13T03:33:45;18.25;;;5.55;;
24034;SDS011;12242;50.952;4.678;2022-10-13T03:36:13;17.23;;;5.93;;
24034;SDS011;12242;50.952;4.678;2022-10-13T03:38:43;15.52;;;5.72;;
24034;SDS011;12242;50.952;4.678;2022-10-13T03:41:14;14.82;;;5.97;;
24034;SDS011;12242;50.952;4.678;2022-10-13T03:43:44;13.45;;;5.80;;
24034;SDS011;12242;50.952;4.678;2022-10-13T03:46:14;16.73;;;5.57;;
24034;SDS011;12242;50.952;4.678;2022-10-13T03:48:43;14.45;;;6.32;;
24034;SDS011;12242;50.952;4.678;2022-10-13T03:51:17;14.15;;;5.80;;
24034;SDS011;12242;50.952;4.678;2022-10-13T03:53:49;17.73;;;6.38;;
24034;SDS011;12242;50.952;4.678;2022-10-13T03:56:20;16.00;;;6.20;;
24034;SDS011;12242;50.952;4.678;2022-10-13T03:58:52;13.63;;;5.82;;
24034;SDS011;12242;50.952;4.678;2022-10-13T04:01:24;17.00;;;6.65;;
24034;SDS011;12242;50.952;4.678;2022-10-13T04:03:58;13.02;;;5.38;;
24034;SDS011;12242;50.952;4.678;2022-10-13T04:06:28;16.20;;;6.07;;
24034;SDS011;12242;50.952;4.678;2022-10-13T04:08:57;15.02;;;6.78;;
24034;SDS011;12242;50.952;4.678;2022-10-13T04:11:24;12.07;;;5.70;;
24034;SDS011;12242;50.952;4.678;2022-10-13T04:13:52;14.25;;;5.90;;
24034;SDS011;12242;50.952;4.678;2022-10-13T04:16:24;14.82;;;5.90;;
24034;SDS011;12242;50.952;4.678;2022-10-13T04:19:00;18.42;;;6.53;;
24034;SDS011;12242;50.952;4.678;2022-10-13T04:21:30;15.48;;;5.65;;
24034;SDS011;12242;50.952;4.678;2022-10-13T04:24:02;15.00;;;5.97;;
24034;SDS011;12242;50.952;4.678;2022-10-13T04:26:31;13.73;;;5.55;;
24034;SDS011;12242;50.952;4.678;2022-10-13T04:29:01;15.70;;;5.93;;
24034;SDS011;12242;50.952;4.678;2022-10-13T04:31:32;18.35;;;6.47;;
24034;SDS011;12242;50.952;4.678;2022-10-13T04:34:01;14.35;;;6.13;;
24034;SDS011;12242;50.952;4.678;2022-10-13T04:36:29;18.88;;;6.38;;
24034;SDS011;12242;50.952;4.678;2022-10-13T04:38:56;14.30;;;6.10;;
24034;SDS011;12242;50.952;4.678;2022-10-13T04:41:24;15.77;;;5.72;;
24034;SDS011;12242;50.952;4.678;2022-10-13T04:43:53;16.38;;;5.97;;
24034;SDS011;12242;50.952;4.678;2022-10-13T04:46:22;15.43;;;6.53;;
24034;SDS011;12242;50.952;4.678;2022-10-13T04:48:54;17.38;;;6.60;;
24034;SDS011;12242;50.952;4.678;2022-10-13T04:51:24;18.20;;;6.70;;
24034;SDS011;12242;50.952;4.678;2022-10-13T04:53:56;15.88;;;6.40;;
24034;SDS011;12242;50.952;4.678;2022-10-13T04:56:25;16.27;;;6.38;;
24034;SDS011;12242;50.952;4.678;2022-10-13T04:58:55;19.13;;;6.20;;
24034;SDS011;12242;50.952;4.678;2022-10-13T05:01:25;16.00;;;6.43;;
24034;SDS011;12242;50.952;4.678;2022-10-13T05:03:56;14.88;;;6.35;;
24034;SDS011;12242;50.952;4.678;2022-10-13T05:06:27;17.30;;;6.20;;
24034;SDS011;12242;50.952;4.678;2022-10-13T05:08:55;20.77;;;7.47;;
24034;SDS011;12242;50.952;4.678;2022-10-13T05:11:26;19.73;;;6.72;;
24034;SDS011;12242;50.952;4.678;2022-10-13T05:13:54;15.48;;;6.18;;
24034;SDS011;12242;50.952;4.678;2022-10-13T05:16:23;15.18;;;6.00;;
24034;SDS011;12242;50.952;4.678;2022-10-13T05:18:54;16.90;;;5.88;;
24034;SDS011;12242;50.952;4.678;2022-10-13T05:21:25;14.13;;;5.90;;
24034;SDS011;12242;50.952;4.678;2022-10-13T05:23:54;17.17;;;6.45;;
24034;SDS011;12242;50.952;4.678;2022-10-13T05:26:25;17.40;;;6.45;;
24034;SDS011;12242;50.952;4.678;2022-10-13T05:28:55;15.63;;;6.53;;
24034;SDS011;12242;50.952;4.678;2022-10-13T05:31:27;17.13;;;6.60;;
24034;SDS011;12242;50.952;4.678;2022-10-13T05:33:55;15.60;;;5.72;;
24034;SDS011;12242;50.952;4.678;2022-10-13T05:36:25;16.95;;;6.07;;
24034;SDS011;12242;50.952;4.678;2022-10-13T05:38:57;13.65;;;6.25;;
24034;SDS011;12242;50.952;4.678;2022-10-13T05:41:26;12.43;;;5.80;;
24034;SDS011;12242;50.952;4.678;2022-10-13T05:43:56;15.10;;;5.78;;
24034;SDS011;12242;50.952;4.678;2022-10-13T05:46:26;15.45;;;6.05;;
24034;SDS011;12242;50.952;4.678;2022-10-13T05:48:54;12.43;;;5.95;;
24034;SDS011;12242;50.952;4.678;2022-10-13T05:51:25;14.63;;;5.78;;
24034;SDS011;12242;50.952;4.678;2022-10-13T05:57:07;20.25;;;7.10;;
24034;SDS011;12242;50.952;4.678;2022-10-13T05:59:42;15.13;;;6.20;;
24034;SDS011;12242;50.952;4.678;2022-10-13T06:02:20;14.63;;;6.20;;
24034;SDS011;12242;50.952;4.678;2022-10-13T06:04:54;21.40;;;6.53;;
24034;SDS011;12242;50.952;4.678;2022-10-13T06:07:25;20.13;;;6.60;;
24034;SDS011;12242;50.952;4.678;2022-10-13T06:09:52;15.75;;;6.03;;
24034;SDS011;12242;50.952;4.678;2022-10-13T06:12:20;16.13;;;5.80;;
24034;SDS011;12242;50.952;4.678;2022-10-13T06:14:47;16.55;;;5.72;;
24034;SDS011;12242;50.952;4.678;2022-10-13T06:17:19;14.63;;;6.30;;
24034;SDS011;12242;50.952;4.678;2022-10-13T06:19:47;15.10;;;6.10;;
24034;SDS011;12242;50.952;4.678;2022-10-13T06:22:17;14.60;;;6.05;;
24034;SDS011;12242;50.952;4.678;2022-10-13T06:24:47;14.20;;;5.95;;
24034;SDS011;12242;50.952;4.678;2022-10-13T06:27:14;27.27;;;7.70;;
24034;SDS011;12242;50.952;4.678;2022-10-13T06:29:41;24.38;;;7.40;;
24034;SDS011;12242;50.952;4.678;2022-10-13T06:32:09;16.70;;;6.38;;
24034;SDS011;12242;50.952;4.678;2022-10-13T06:34:37;18.00;;;6.63;;
24034;SDS011;12242;50.952;4.678;2022-10-13T06:37:05;16.65;;;7.05;;
24034;SDS011;12242;50.952;4.678;2022-10-13T06:39:32;14.15;;;6.47;;
24034;SDS011;12242;50.952;4.678;2022-10-13T06:42:00;15.77;;;6.57;;
24034;SDS011;12242;50.952;4.678;2022-10-13T06:44:30;18.15;;;6.40;;
24034;SDS011;12242;50.952;4.678;2022-10-13T06:47:00;23.13;;;6.90;;
24034;SDS011;12242;50.952;4.678;2022-10-13T06:49:29;17.40;;;6.20;;
24034;SDS011;12242;50.952;4.678;2022-10-13T06:51:56;16.65;;;6.60;;
24034;SDS011;12242;50.952;4.678;2022-10-13T06:54:24;19.77;;;6.43;;
24034;SDS011;12242;50.952;4.678;2022-10-13T06:56:51;15.38;;;6.63;;
24034;SDS011;12242;50.952;4.678;2022-10-13T06:59:19;15.65;;;6.57;;
24034;SDS011;12242;50.952;4.678;2022-10-13T07:01:47;14.98;;;6.90;;
24034;SDS011;12242;50.952;4.678;2022-10-13T07:04:17;19.30;;;6.47;;
24034;SDS011;12242;50.952;4.678;2022-10-13T07:06:45;19.40;;;6.60;;
24034;SDS011;12242;50.952;4.678;2022-10-13T07:09:12;15.35;;;6.95;;
24034;SDS011;12242;50.952;4.678;2022-10-13T07:11:42;13.15;;;6.13;;
24034;SDS011;12242;50.952;4.678;2022-10-13T07:14:12;13.88;;;6.10;;
24034;SDS011;12242;50.952;4.678;2022-10-13T07:16:40;14.55;;;5.93;;
24034;SDS011;12242;50.952;4.678;2022-10-13T07:19:08;14.40;;;5.40;;
24034;SDS011;12242;50.952;4.678;2022-10-13T07:21:35;16.55;;;5.40;;
24034;SDS011;12242;50.952;4.678;2022-10-13T07:24:03;12.32;;;5.80;;
24034;SDS011;12242;50.952;4.678;2022-10-13T07:26:30;13.90;;;6.00;;
24034;SDS011;12242;50.952;4.678;2022-10-13T07:28:59;18.08;;;5.32;;
24034;SDS011;12242;50.952;4.678;2022-10-13T07:31:27;15.07;;;5.35;;
24034;SDS011;12242;50.952;4.678;2022-10-13T07:33:57;12.65;;;5.68;;
24034;SDS011;12242;50.952;4.678;2022-10-13T07:36:25;15.00;;;6.63;;
24034;SDS011;12242;50.952;4.678;2022-10-13T07:38:54;19.85;;;6.45;;
24034;SDS011;12242;50.952;4.678;2022-10-13T07:41:22;15.10;;;6.07;;
24034;SDS011;12242;50.952;4.678;2022-10-13T07:43:54;16.63;;;6.57;;
24034;SDS011;12242;50.952;4.678;2022-10-13T07:46:22;14.63;;;6.50;;
24034;SDS011;12242;50.952;4.678;2022-10-13T07:48:53;15.85;;;7.15;;
24034;SDS011;12242;50.952;4.678;2022-10-13T07:51:22;20.38;;;6.20;;
24034;SDS011;12242;50.952;4.678;2022-10-13T07:53:50;16.88;;;6.20;;
24034;SDS011;12242;50.952;4.678;2022-10-13T07:56:20;12.70;;;5.45;;
24034;SDS011;12242;50.952;4.678;2022-10-13T07:58:47;13.50;;;5.93;;
24034;SDS011;12242;50.952;4.678;2022-10-13T08:01:15;14.15;;;5.18;;
24034;SDS011;12242;50.952;4.678;2022-10-13T08:03:47;15.65;;;5.78;;
24034;SDS011;12242;50.952;4.678;2022-10-13T08:06:16;16.88;;;6.03;;
24034;SDS011;12242;50.952;4.678;2022-10-13T08:08:46;15.50;;;5.45;;
24034;SDS011;12242;50.952;4.678;2022-10-13T08:11:14;14.90;;;6.10;;
24034;SDS011;12242;50.952;4.678;2022-10-13T08:13:49;17.20;;;6.05;;
24034;SDS011;12242;50.952;4.678;2022-10-13T08:16:17;22.23;;;5.88;;
24034;SDS011;12242;50.952;4.678;2022-10-13T08:18:46;13.50;;;5.93;;
24034;SDS011;12242;50.952;4.678;2022-10-13T08:21:15;18.83;;;6.30;;
24034;SDS011;12242;50.952;4.678;2022-10-13T08:24:10;17.80;;;5.95;;
24034;SDS011;12242;50.952;4.678;2022-10-13T08:26:39;14.10;;;5.47;;
24034;SDS011;12242;50.952;4.678;2022-10-13T08:29:10;14.25;;;5.65;;
24034;SDS011;12242;50.952;4.678;2022-10-13T08:31:54;12.65;;;5.22;;
24034;SDS011;12242;50.952;4.678;2022-10-13T08:34:22;16.23;;;5.85;;
24034;SDS011;12242;50.952;4.678;2022-10-13T08:36:50;14.52;;;5.22;;
24034;SDS011;12242;50.952;4.678;2022-10-13T08:39:20;14.85;;;5.82;;
24034;SDS011;12242;50.952;4.678;2022-10-13T08:41:50;12.82;;;5.00;;
24034;SDS011;12242;50.952;4.678;2022-10-13T08:44:33;15.55;;;6.32;;
24034;SDS011;12242;50.952;4.678;2022-10-13T08:50:06;16.23;;;6.35;;
24034;SDS011;12242;50.952;4.678;2022-10-13T08:52:51;15.40;;;5.78;;
24034;SDS011;12242;50.952;4.678;2022-10-13T08:55:32;13.95;;;5.72;;
24034;SDS011;12242;50.952;4.678;2022-10-13T08:58:29;12.73;;;5.65;;
24034;SDS011;12242;50.952;4.678;2022-10-13T09:06:32;13.38;;;5.50;;
24034;SDS011;12242;50.952;4.678;2022-10-13T09:09:06;15.50;;;5.25;;
24034;SDS011;12242;50.952;4.678;2022-10-13T09:11:38;12.25;;;5.35;;
24034;SDS011;12242;50.952;4.678;2022-10-13T09:14:09;15.52;;;5.00;;
24034;SDS011;12242;50.952;4.678;2022-10-13T09:16:43;16.10;;;5.28;;
24034;SDS011;12242;50.952;4.678;2022-10-13T09:19:16;11.52;;;5.13;;
24034;SDS011;12242;50.952;4.678;2022-10-13T09:21:49;11.27;;;4.95;;
24034;SDS011;12242;50.952;4.678;2022-10-13T09:24:19;18.10;;;6.03;;
24034;SDS011;12242;50.952;4.678;2022-10-13T09:26:49;11.45;;;4.45;;
24034;SDS011;12242;50.952;4.678;2022-10-13T09:29:30;10.80;;;4.80;;
24034;SDS011;12242;50.952;4.678;2022-10-13T09:32:12;12.45;;;4.65;;
24034;SDS011;12242;50.952;4.678;2022-10-13T09:34:46;12.20;;;4.78;;
24034;SDS011;12242;50.952;4.678;2022-10-13T09:37:21;18.40;;;5.40;;
24034;SDS011;12242;50.952;4.678;2022-10-13T09:40:00;10.75;;;5.15;;
24034;SDS011;12242;50.952;4.678;2022-10-13T09:42:37;11.93;;;4.97;;
24034;SDS011;12242;50.952;4.678;2022-10-13T09:45:15;13.07;;;4.97;;
24034;SDS011;12242;50.952;4.678;2022-10-13T09:47:55;12.25;;;4.97;;
24034;SDS011;12242;50.952;4.678;2022-10-13T09:50:32;10.98;;;4.40;;
24034;SDS011;12242;50.952;4.678;2022-10-13T09:53:16;10.60;;;5.00;;
24034;SDS011;12242;50.952;4.678;2022-10-13T09:56:16;12.88;;;5.22;;
24034;SDS011;12242;50.952;4.678;2022-10-13T09:59:15;15.73;;;5.03;;
24034;SDS011;12242;50.952;4.678;2022-10-13T10:04:22;15.57;;;5.28;;
24034;SDS011;12242;50.952;4.678;2022-10-13T10:06:55;13.23;;;5.32;;
24034;SDS011;12242;50.952;4.678;2022-10-13T10:09:27;14.70;;;5.80;;
24034;SDS011;12242;50.952;4.678;2022-10-13T10:11:59;14.77;;;4.88;;
24034;SDS011;12242;50.952;4.678;2022-10-13T10:14:31;12.30;;;5.38;;
24034;SDS011;12242;50.952;4.678;2022-10-13T10:22:14;12.02;;;5.18;;
24034;SDS011;12242;50.952;4.678;2022-10-13T10:27:39;11.98;;;5.18;;
24034;SDS011;12242;50.952;4.678;2022-10-13T10:30:13;15.82;;;5.55;;
24034;SDS011;12242;50.952;4.678;2022-10-13T10:35:48;24.98;;;12.20;;
24034;SDS011;12242;50.952;4.678;2022-10-13T10:41:07;16.42;;;8.15;;
24034;SDS011;12242;50.952;4.678;2022-10-13T10:46:41;10.73;;;5.22;;
24034;SDS011;12242;50.952;4.678;2022-10-13T10:49:24;11.27;;;4.90;;
24034;SDS011;12242;50.952;4.678;2022-10-13T10:51:56;11.13;;;5.13;;
24034;SDS011;12242;50.952;4.678;2022-10-13T10:54:48;12.40;;;4.75;;
24034;SDS011;12242;50.952;4.678;2022-10-13T10:57:27;16.00;;;5.30;;
24034;SDS011;12242;50.952;4.678;2022-10-13T11:00:19;15.43;;;5.38;;
24034;SDS011;12242;50.952;4.678;2022-10-13T11:06:03;12.40;;;5.10;;
24034;SDS011;12242;50.952;4.678;2022-10-13T11:08:47;18.10;;;6.53;;
24034;SDS011;12242;50.952;4.678;2022-10-13T11:19:31;14.13;;;5.60;;
24034;SDS011;12242;50.952;4.678;2022-10-13T11:35:13;16.58;;;6.60;;
24034;SDS011;12242;50.952;4.678;2022-10-13T11:43:23;17.45;;;7.18;;
24034;SDS011;12242;50.952;4.678;2022-10-13T11:48:57;16.92;;;6.75;;
24034;SDS011;12242;50.952;4.678;2022-10-13T11:54:54;16.52;;;6.70;;
24034;SDS011;12242;50.952;4.678;2022-10-13T11:57:34;16.15;;;6.70;;
24034;SDS011;12242;50.952;4.678;2022-10-13T12:00:02;24.40;;;10.52;;
24034;SDS011;12242;50.952;4.678;2022-10-13T12:02:30;17.42;;;8.38;;
24034;SDS011;12242;50.952;4.678;2022-10-13T12:04:58;14.90;;;6.85;;
24034;SDS011;12242;50.952;4.678;2022-10-13T12:07:29;16.67;;;6.30;;
24034;SDS011;12242;50.952;4.678;2022-10-13T12:10:06;14.43;;;6.03;;
24034;SDS011;12242;50.952;4.678;2022-10-13T12:12:46;15.75;;;6.97;;
24034;SDS011;12242;50.952;4.678;2022-10-13T12:15:27;13.63;;;6.70;;
24034;SDS011;12242;50.952;4.678;2022-10-13T12:17:59;15.60;;;6.38;;
24034;SDS011;12242;50.952;4.678;2022-10-13T12:20:29;16.50;;;6.53;;
24034;SDS011;12242;50.952;4.678;2022-10-13T12:22:58;14.30;;;6.45;;
24034;SDS011;12242;50.952;4.678;2022-10-13T12:25:27;17.90;;;6.20;;
24034;SDS011;12242;50.952;4.678;2022-10-13T12:27:57;16.45;;;6.88;;
24034;SDS011;12242;50.952;4.678;2022-10-13T12:32:55;14.95;;;6.45;;
24034;SDS011;12242;50.952;4.678;2022-10-13T12:37:56;15.57;;;6.72;;
24034;SDS011;12242;50.952;4.678;2022-10-13T12:40:26;16.40;;;6.80;;
24034;SDS011;12242;50.952;4.678;2022-10-13T12:42:55;16.67;;;6.68;;
24034;SDS011;12242;50.952;4.678;2022-10-13T12:45:25;13.20;;;6.47;;
24034;SDS011;12242;50.952;4.678;2022-10-13T12:47:57;15.68;;;6.40;;
24034;SDS011;12242;50.952;4.678;2022-10-13T12:55:49;11.90;;;5.85;;
24034;SDS011;12242;50.952;4.678;2022-10-13T12:58:29;11.55;;;5.97;;
24034;SDS011;12242;50.952;4.678;2022-10-13T13:01:06;11.73;;;6.03;;
24034;SDS011;12242;50.952;4.678;2022-10-13T13:03:44;15.15;;;6.57;;
24034;SDS011;12242;50.952;4.678;2022-10-13T13:06:23;14.20;;;6.45;;
24034;SDS011;12242;50.952;4.678;2022-10-13T13:12:14;15.15;;;6.25;;
24034;SDS011;12242;50.952;4.678;2022-10-13T13:14:51;13.30;;;5.90;;
24034;SDS011;12242;50.952;4.678;2022-10-13T13:17:24;17.92;;;7.25;;
24034;SDS011;12242;50.952;4.678;2022-10-13T13:20:18;18.55;;;7.28;;
24034;SDS011;12242;50.952;4.678;2022-10-13T13:22:59;15.63;;;6.33;;
24034;SDS011;12242;50.952;4.678;2022-10-13T13:25:26;15.40;;;7.25;;
24034;SDS011;12242;50.952;4.678;2022-10-13T13:27:58;16.65;;;7.00;;
24034;SDS011;12242;50.952;4.678;2022-10-13T13:30:29;14.40;;;7.05;;
24034;SDS011;12242;50.952;4.678;2022-10-13T13:32:57;15.90;;;6.78;;
24034;SDS011;12242;50.952;4.678;2022-10-13T13:35:24;15.23;;;6.97;;
24034;SDS011;12242;50.952;4.678;2022-10-13T13:37:53;17.13;;;7.05;;
24034;SDS011;12242;50.952;4.678;2022-10-13T13:40:25;18.70;;;7.65;;
24034;SDS011;12242;50.952;4.678;2022-10-13T13:42:53;18.88;;;7.93;;
24034;SDS011;12242;50.952;4.678;2022-10-13T13:45:21;18.35;;;7.20;;
24034;SDS011;12242;50.952;4.678;2022-10-13T13:47:54;18.63;;;7.50;;
24034;SDS011;12242;50.952;4.678;2022-10-13T13:50:27;13.82;;;7.20;;
24034;SDS011;12242;50.952;4.678;2022-10-13T13:53:02;16.15;;;7.60;;
24034;SDS011;12242;50.952;4.678;2022-10-13T13:55:30;19.60;;;8.15;;
24034;SDS011;12242;50.952;4.678;2022-10-13T13:57:57;22.13;;;8.10;;
24034;SDS011;12242;50.952;4.678;2022-10-13T14:00:25;21.00;;;8.73;;
24034;SDS011;12242;50.952;4.678;2022-10-13T14:02:52;19.73;;;9.23;;
24034;SDS011;12242;50.952;4.678;2022-10-13T14:05:20;16.70;;;8.48;;
24034;SDS011;12242;50.952;4.678;2022-10-13T14:07:48;20.98;;;8.70;;
24034;SDS011;12242;50.952;4.678;2022-10-13T14:10:16;18.13;;;8.55;;
24034;SDS011;12242;50.952;4.678;2022-10-13T14:12:45;19.70;;;8.68;;
24034;SDS011;12242;50.952;4.678;2022-10-13T14:15:17;20.52;;;9.40;;
24034;SDS011;12242;50.952;4.678;2022-10-13T14:17:47;15.23;;;8.50;;
24034;SDS011;12242;50.952;4.678;2022-10-13T14:20:17;18.50;;;8.05;;
24034;SDS011;12242;50.952;4.678;2022-10-13T14:22:47;16.80;;;8.43;;
24034;SDS011;12242;50.952;4.678;2022-10-13T14:25:16;17.77;;;8.18;;
24034;SDS011;12242;50.952;4.678;2022-10-13T14:27:43;18.90;;;8.93;;
24034;SDS011;12242;50.952;4.678;2022-10-13T14:30:17;19.80;;;9.35;;
24034;SDS011;12242;50.952;4.678;2022-10-13T14:32:47;17.98;;;9.60;;
24034;SDS011;12242;50.952;4.678;2022-10-13T14:35:14;15.68;;;8.63;;
24034;SDS011;12242;50.952;4.678;2022-10-13T14:37:47;17.52;;;9.40;;
24034;SDS011;12242;50.952;4.678;2022-10-13T14:40:15;18.30;;;9.18;;
24034;SDS011;12242;50.952;4.678;2022-10-13T14:42:42;19.27;;;8.88;;
24034;SDS011;12242;50.952;4.678;2022-10-13T14:45:10;16.73;;;9.02;;
24034;SDS011;12242;50.952;4.678;2022-10-13T14:47:41;20.60;;;9.10;;
24034;SDS011;12242;50.952;4.678;2022-10-13T14:50:09;18.35;;;8.48;;
24034;SDS011;12242;50.952;4.678;2022-10-13T14:52:39;17.98;;;8.48;;
24034;SDS011;12242;50.952;4.678;2022-10-13T14:55:06;14.55;;;7.88;;
24034;SDS011;12242;50.952;4.678;2022-10-13T14:57:34;17.05;;;8.45;;
24034;SDS011;12242;50.952;4.678;2022-10-13T15:00:01;17.10;;;8.68;;
24034;SDS011;12242;50.952;4.678;2022-10-13T15:02:29;20.05;;;9.38;;
24034;SDS011;12242;50.952;4.678;2022-10-13T15:04:59;20.73;;;8.25;;
24034;SDS011;12242;50.952;4.678;2022-10-13T15:07:26;14.57;;;7.65;;
24034;SDS011;12242;50.952;4.678;2022-10-13T15:09:54;17.33;;;7.82;;
24034;SDS011;12242;50.952;4.678;2022-10-13T15:12:34;17.00;;;7.93;;
24034;SDS011;12242;50.952;4.678;2022-10-13T15:15:03;15.93;;;8.38;;
24034;SDS011;12242;50.952;4.678;2022-10-13T15:17:33;17.55;;;8.57;;
24034;SDS011;12242;50.952;4.678;2022-10-13T15:20:03;17.13;;;7.80;;
24034;SDS011;12242;50.952;4.678;2022-10-13T15:22:31;16.02;;;7.90;;
24034;SDS011;12242;50.952;4.678;2022-10-13T15:25:03;17.88;;;7.93;;
24034;SDS011;12242;50.952;4.678;2022-10-13T15:27:38;16.65;;;7.93;;
24034;SDS011;12242;50.952;4.678;2022-10-13T15:30:08;20.23;;;8.82;;
24034;SDS011;12242;50.952;4.678;2022-10-13T15:32:39;16.80;;;7.88;;
24034;SDS011;12242;50.952;4.678;2022-10-13T15:35:08;16.58;;;7.40;;
24034;SDS011;12242;50.952;4.678;2022-10-13T15:37:35;15.63;;;7.68;;
24034;SDS011;12242;50.952;4.678;2022-10-13T15:40:03;15.05;;;7.30;;
24034;SDS011;12242;50.952;4.678;2022-10-13T15:42:31;18.05;;;7.93;;
24034;SDS011;12242;50.952;4.678;2022-10-13T15:44:58;17.60;;;7.63;;
24034;SDS011;12242;50.952;4.678;2022-10-13T15:47:37;20.35;;;8.00;;
24034;SDS011;12242;50.952;4.678;2022-10-13T15:50:05;15.88;;;7.90;;
24034;SDS011;12242;50.952;4.678;2022-10-13T15:52:39;17.00;;;7.10;;
24034;SDS011;12242;50.952;4.678;2022-10-13T15:55:08;15.13;;;7.43;;
24034;SDS011;12242;50.952;4.678;2022-10-13T15:57:37;12.43;;;6.25;;
24034;SDS011;12242;50.952;4.678;2022-10-13T16:00:05;14.90;;;6.50;;
24034;SDS011;12242;50.952;4.678;2022-10-13T16:02:33;14.32;;;6.13;;
24034;SDS011;12242;50.952;4.678;2022-10-13T16:05:03;10.80;;;5.15;;
24034;SDS011;12242;50.952;4.678;2022-10-13T16:07:31;12.23;;;5.72;;
24034;SDS011;12242;50.952;4.678;2022-10-13T16:10:00;9.60;;;4.93;;
24034;SDS011;12242;50.952;4.678;2022-10-13T16:12:28;9.00;;;4.45;;
24034;SDS011;12242;50.952;4.678;2022-10-13T16:14:56;10.68;;;4.68;;
24034;SDS011;12242;50.952;4.678;2022-10-13T16:17:23;11.02;;;4.55;;
24034;SDS011;12242;50.952;4.678;2022-10-13T16:19:51;12.57;;;5.10;;
24034;SDS011;12242;50.952;4.678;2022-10-13T16:22:19;11.48;;;4.35;;
24034;SDS011;12242;50.952;4.678;2022-10-13T16:24:46;7.65;;;4.07;;
24034;SDS011;12242;50.952;4.678;2022-10-13T16:27:14;10.50;;;4.32;;
24034;SDS011;12242;50.952;4.678;2022-10-13T16:29:41;14.10;;;4.60;;
24034;SDS011;12242;50.952;4.678;2022-10-13T16:32:11;12.75;;;4.63;;
24034;SDS011;12242;50.952;4.678;2022-10-13T16:34:39;12.98;;;4.60;;
24034;SDS011;12242;50.952;4.678;2022-10-13T16:37:07;10.95;;;5.05;;
24034;SDS011;12242;50.952;4.678;2022-10-13T16:39:34;9.15;;;4.30;;
24034;SDS011;12242;50.952;4.678;2022-10-13T16:42:09;9.27;;;4.32;;
24034;SDS011;12242;50.952;4.678;2022-10-13T16:44:37;7.07;;;4.10;;
24034;SDS011;12242;50.952;4.678;2022-10-13T16:47:05;15.13;;;4.90;;